Time;durP1;ratioP1;P1;durP2;ratioP2;P2;SDS_P1;SDS_P2;PMS_P1;PMS_P2;Temp;Humidity;BMP_temperature;BMP_pressure;BME280_temperature;BME280_humidity;BME280_pressure;Samples;Min_cycle;Max_cycle;Signal;HPM_P1;HPM_P2
2023/01/06 00:01:26;;;;;;;3.67;3.53;;;7.50;99.90;;;;;;5008011;28;20030;-72
2023/01/06 00:03:54;;;;;;;2.40;2.30;;;7.40;99.90;;;;;;5007567;28;20065;-73
2023/01/06 00:06:26;;;;;;;3.03;2.92;;;7.50;99.90;;;;;;5008841;28;20369;-73
2023/01/06 00:08:53;;;;;;;2.50;2.40;;;7.60;99.90;;;;;;5016716;28;20034;-73
2023/01/06 00:11:19;;;;;;;2.72;2.63;;;7.50;99.90;;;;;;5011246;28;20018;-72
2023/01/06 00:13:45;;;;;;;2.80;2.70;;;7.50;99.90;;;;;;5017298;28;20048;-72
2023/01/06 00:16:13;;;;;;;2.85;2.75;;;7.50;99.90;;;;;;5001704;28;20022;-72
2023/01/06 00:18:39;;;;;;;2.60;2.50;;;7.50;99.90;;;;;;5000471;28;20030;-72
2023/01/06 00:21:06;;;;;;;2.97;2.88;;;7.50;99.90;;;;;;5013990;28;20034;-73
2023/01/06 00:23:32;;;;;;;3.22;3.13;;;7.50;99.90;;;;;;5002995;28;20451;-72
2023/01/06 00:25:58;;;;;;;3.33;3.22;;;7.50;99.90;;;;;;5024789;28;20046;-72
2023/01/06 00:28:23;;;;;;;3.10;3.00;;;7.50;99.90;;;;;;5000353;28;20097;-73
2023/01/06 00:30:49;;;;;;;3.17;3.08;;;7.50;99.90;;;;;;5003778;28;20034;-72
2023/01/06 00:33:15;;;;;;;3.13;3.03;;;7.50;99.90;;;;;;5009373;28;20379;-72
2023/01/06 00:35:40;;;;;;;3.70;3.60;;;7.50;99.90;;;;;;5014120;28;20109;-72
2023/01/06 00:38:06;;;;;;;3.10;3.00;;;7.50;99.90;;;;;;5002155;28;20555;-72
2023/01/06 00:40:32;;;;;;;3.58;3.47;;;7.50;99.90;;;;;;5025576;28;20117;-70
2023/01/06 00:42:57;;;;;;;3.88;3.78;;;7.50;99.90;;;;;;5000270;28;20058;-72
2023/01/06 00:45:23;;;;;;;3.80;3.70;;;7.60;99.90;;;;;;5005748;28;20041;-70
2023/01/06 00:47:48;;;;;;;3.60;3.50;;;7.60;99.90;;;;;;5005684;28;20494;-71
2023/01/06 00:50:14;;;;;;;3.70;3.60;;;7.60;99.90;;;;;;4993668;28;20509;-71
2023/01/06 00:52:39;;;;;;;4.00;3.90;;;7.60;99.90;;;;;;4994828;28;20065;-71
2023/01/06 00:55:05;;;;;;;5.15;4.85;;;7.60;99.90;;;;;;5005713;28;20465;-71
2023/01/06 00:57:31;;;;;;;6.18;5.88;;;7.60;99.90;;;;;;5006669;28;20029;-71
2023/01/06 00:59:56;;;;;;;6.10;5.68;;;7.60;99.90;;;;;;4999596;28;20030;-71
2023/01/06 01:02:22;;;;;;;4.30;4.20;;;7.60;99.90;;;;;;4999908;28;20453;-72
2023/01/06 01:04:48;;;;;;;3.70;3.60;;;7.60;99.90;;;;;;5006621;28;20377;-72
2023/01/06 01:07:13;;;;;;;3.80;3.70;;;7.60;99.90;;;;;;5006925;28;20029;-72
2023/01/06 01:09:39;;;;;;;3.95;3.85;;;7.60;99.90;;;;;;5000821;28;20022;-72
2023/01/06 01:12:10;;;;;;;3.97;3.88;;;7.60;99.90;;;;;;5026670;28;20064;-72
2023/01/06 01:14:56;;;;;;;4.30;4.20;;;7.70;99.90;;;;;;5005810;28;20026;-72
2023/01/06 01:17:31;;;;;;;4.40;4.30;;;7.70;99.90;;;;;;5023145;28;20034;-72
2023/01/06 01:19:58;;;;;;;4.90;4.70;;;7.70;99.90;;;;;;5000657;28;20404;-71
2023/01/06 01:22:25;;;;;;;4.28;4.18;;;7.70;99.90;;;;;;5006825;28;20018;-72
2023/01/06 01:24:51;;;;;;;4.45;4.25;;;7.70;99.90;;;;;;5005213;28;20026;-70
2023/01/06 01:27:17;;;;;;;4.85;4.65;;;7.70;99.90;;;;;;5012069;28;20383;-70
2023/01/06 01:29:42;;;;;;;4.90;4.70;;;7.70;99.90;;;;;;4999881;28;20492;-70
2023/01/06 01:32:09;;;;;;;4.90;4.70;;;7.70;99.90;;;;;;5006157;28;20025;-70
2023/01/06 01:34:34;;;;;;;4.82;4.63;;;7.70;99.90;;;;;;5005700;28;20032;-71
2023/01/06 01:37:00;;;;;;;5.38;5.18;;;7.80;99.90;;;;;;4999366;28;20431;-71
2023/01/06 01:39:27;;;;;;;5.60;5.40;;;7.80;99.90;;;;;;5023652;28;20128;-71
2023/01/06 01:41:54;;;;;;;5.65;5.45;;;7.80;99.90;;;;;;5018911;28;20019;-71
2023/01/06 01:44:51;;;;;;;5.43;5.22;;;7.80;99.90;;;;;;5019165;28;20018;-71
2023/01/06 01:47:29;;;;;;;;;;;7.80;99.90;;;;;;4991853;28;20027;-71
2023/01/06 01:50:10;;;;;;;5.45;5.25;;;7.80;99.90;;;;;;5005856;28;19914;-72
2023/01/06 01:52:36;;;;;;;5.25;5.05;;;7.80;99.90;;;;;;5005729;28;20030;-71
2023/01/06 01:55:03;;;;;;;5.35;5.15;;;7.80;99.90;;;;;;5000692;28;20449;-71
2023/01/06 01:57:36;;;;;;;5.75;5.55;;;7.80;99.90;;;;;;4998772;28;20029;-71
2023/01/06 02:00:05;;;;;;;5.68;5.47;;;7.80;99.90;;;;;;5021061;28;20021;-71
2023/01/06 02:02:31;;;;;;;5.65;5.45;;;7.90;99.90;;;;;;5013743;28;20396;-71
2023/01/06 02:04:59;;;;;;;6.13;5.93;;;7.90;99.90;;;;;;5000330;28;20026;-71
2023/01/06 02:07:26;;;;;;;5.80;5.60;;;7.90;99.90;;;;;;4999116;28;20372;-72
2023/01/06 02:10:11;;;;;;;5.50;5.30;;;7.90;99.90;;;;;;5012144;28;20476;-71
2023/01/06 02:12:38;;;;;;;7.20;6.90;;;7.90;99.90;;;;;;5023856;28;20380;-71
2023/01/06 02:15:17;;;;;;;5.80;5.60;;;8.00;99.90;;;;;;5000156;28;20037;-71
2023/01/06 02:18:08;;;;;;;6.20;6.00;;;8.00;99.90;;;;;;5003626;28;20037;-72
2023/01/06 02:21:04;;;;;;;6.68;6.47;;;8.00;99.90;;;;;;4996631;28;20080;-71
2023/01/06 02:23:58;;;;;;;6.20;6.00;;;8.00;99.90;;;;;;4998823;28;20472;-72
2023/01/06 02:26:55;;;;;;;6.32;6.13;;;8.00;99.90;;;;;;4998369;28;20031;-72
2023/01/06 02:30:07;;;;;;;10.15;9.15;;;8.00;99.90;;;;;;4997819;28;20069;-72
2023/01/06 02:32:36;;;;;;;6.90;6.70;;;8.00;99.90;;;;;;5001884;28;20034;-72
2023/01/06 02:35:41;;;;;;;6.70;6.50;;;8.00;99.90;;;;;;4997466;28;20074;-71
2023/01/06 02:38:55;;;;;;;6.82;6.63;;;8.00;99.90;;;;;;4997127;28;20116;-71
2023/01/06 02:41:28;;;;;;;8.25;7.95;;;8.00;99.90;;;;;;4997473;28;20039;-72
2023/01/06 02:44:09;;;;;;;7.10;6.90;;;8.00;99.90;;;;;;5016281;28;20380;-71
2023/01/06 02:46:59;;;;;;;7.30;7.10;;;8.00;99.90;;;;;;5002667;28;20025;-71
2023/01/06 02:49:29;;;;;;;8.85;8.55;;;7.90;99.90;;;;;;5002370;28;20018;-71
2023/01/06 02:52:08;;;;;;;10.63;10.23;;;8.00;99.90;;;;;;5006548;28;20035;-71
2023/01/06 02:54:40;;;;;;;8.20;7.90;;;8.00;99.90;;;;;;5009230;28;20022;-71
2023/01/06 02:57:38;;;;;;;8.57;8.27;;;7.90;99.90;;;;;;5018436;28;20022;-71
2023/01/06 03:00:10;;;;;;;8.60;8.30;;;7.90;99.90;;;;;;5005341;28;20045;-71
2023/01/06 03:02:40;;;;;;;8.52;8.23;;;8.00;99.90;;;;;;5002152;28;20026;-71
2023/01/06 03:05:08;;;;;;;9.13;8.82;;;8.00;99.90;;;;;;5004870;28;20093;-71
2023/01/06 03:07:37;;;;;;;8.05;7.75;;;8.00;99.90;;;;;;5008679;28;20030;-72
2023/01/06 03:10:04;;;;;;;8.95;8.65;;;7.90;99.90;;;;;;5005681;28;20037;-72
2023/01/06 03:12:40;;;;;;;8.88;8.57;;;8.00;99.90;;;;;;5002001;28;20022;-73
2023/01/06 03:15:07;;;;;;;9.35;9.05;;;8.00;99.90;;;;;;5028281;28;20053;-72
2023/01/06 03:17:32;;;;;;;9.35;9.05;;;8.00;99.90;;;;;;5008864;28;20117;-72
2023/01/06 03:19:58;;;;;;;9.25;8.95;;;8.10;99.90;;;;;;5006976;28;20120;-72
2023/01/06 03:22:24;;;;;;;9.48;9.18;;;8.10;99.90;;;;;;5021444;28;20018;-72
2023/01/06 03:24:51;;;;;;;9.80;9.50;;;8.10;99.90;;;;;;5021728;28;20519;-71
2023/01/06 03:27:20;;;;;;;9.88;9.57;;;8.10;99.90;;;;;;5001742;28;20029;-71
2023/01/06 03:29:46;;;;;;;9.07;8.77;;;8.10;99.90;;;;;;5006281;28;20037;-71
2023/01/06 03:32:25;;;;;;;9.35;9.05;;;8.10;99.90;;;;;;5007950;28;20380;-72
2023/01/06 03:35:18;;;;;;;9.20;8.90;;;8.10;99.90;;;;;;5011212;28;20160;-71
2023/01/06 03:37:50;;;;;;;9.35;9.05;;;8.10;99.90;;;;;;5022011;28;20036;-72
2023/01/06 03:40:33;;;;;;;9.30;9.00;;;8.10;99.90;;;;;;5000079;28;20372;-71
2023/01/06 03:43:12;;;;;;;9.98;9.68;;;8.10;99.90;;;;;;5027918;28;20024;-71
2023/01/06 03:45:55;;;;;;;9.77;9.48;;;8.10;99.90;;;;;;5004343;28;20021;-70
2023/01/06 03:48:51;;;;;;;10.65;10.25;;;8.10;99.90;;;;;;5008053;28;20076;-70
2023/01/06 03:51:55;;;;;;;10.57;10.18;;;8.10;99.90;;;;;;5013393;28;20045;-70
2023/01/06 03:54:46;;;;;;;10.63;10.13;;;8.20;99.90;;;;;;5019166;28;20507;-70
2023/01/06 03:57:22;;;;;;;10.93;10.52;;;8.20;99.90;;;;;;5002634;28;20040;-70
2023/01/06 04:00:14;;;;;;;10.38;9.98;;;8.20;99.90;;;;;;5001195;28;20087;-70
2023/01/06 04:02:40;;;;;;;11.50;11.10;;;8.20;99.90;;;;;;5027373;28;20018;-71
2023/01/06 04:05:16;;;;;;;11.80;11.40;;;8.20;99.90;;;;;;5024889;28;20410;-71
2023/01/06 04:07:42;;;;;;;11.63;11.23;;;8.20;99.90;;;;;;5009977;28;20106;-71
2023/01/06 04:10:10;;;;;;;10.75;10.35;;;8.20;99.90;;;;;;5006601;28;20037;-72
2023/01/06 04:12:38;;;;;;;11.45;11.05;;;8.20;99.90;;;;;;5000921;28;20064;-71
2023/01/06 04:15:17;;;;;;;11.43;11.02;;;8.20;99.90;;;;;;5001641;28;20052;-72
2023/01/06 04:17:44;;;;;;;11.85;11.45;;;8.20;99.90;;;;;;5002170;28;20057;-72
2023/01/06 04:20:13;;;;;;;12.88;12.27;;;8.20;99.90;;;;;;5002201;28;20428;-72
2023/01/06 04:22:39;;;;;;;11.05;10.65;;;8.20;99.90;;;;;;5025123;28;20066;-72
2023/01/06 04:25:05;;;;;;;10.90;10.50;;;8.30;99.90;;;;;;5000872;28;20130;-71
2023/01/06 04:27:31;;;;;;;12.18;11.77;;;8.20;99.90;;;;;;5003834;28;20034;-71
2023/01/06 04:29:56;;;;;;;12.57;12.13;;;8.20;99.90;;;;;;5009197;28;20037;-71
2023/01/06 04:32:22;;;;;;;12.68;12.20;;;8.30;99.90;;;;;;5005140;28;20099;-71
2023/01/06 04:34:48;;;;;;;14.32;13.82;;;8.30;99.90;;;;;;5007110;28;20033;-72
2023/01/06 04:37:13;;;;;;;12.40;12.00;;;8.30;99.90;;;;;;5011567;28;20750;-71
2023/01/06 04:39:39;;;;;;;12.32;11.93;;;8.30;99.90;;;;;;5004581;28;20122;-71
2023/01/06 04:42:04;;;;;;;15.68;14.75;;;8.40;99.90;;;;;;5021979;28;20060;-71
2023/01/06 04:44:30;;;;;;;13.13;12.63;;;8.50;99.90;;;;;;5019868;28;20025;-71
2023/01/06 04:46:55;;;;;;;12.60;12.20;;;8.40;99.90;;;;;;5023691;28;20021;-72
2023/01/06 04:49:21;;;;;;;13.95;13.45;;;8.40;99.90;;;;;;5001801;28;20080;-72
2023/01/06 04:51:46;;;;;;;12.23;11.82;;;8.40;99.90;;;;;;5024979;28;20038;-71
2023/01/06 04:54:12;;;;;;;14.23;13.73;;;8.40;99.90;;;;;;5000288;28;20084;-72
2023/01/06 04:56:37;;;;;;;13.68;13.18;;;8.40;99.90;;;;;;5005379;28;20109;-72
2023/01/06 04:59:03;;;;;;;13.20;12.70;;;8.40;99.90;;;;;;5006736;28;20057;-71
2023/01/06 05:01:28;;;;;;;14.32;13.82;;;8.40;99.90;;;;;;5001272;28;20060;-73
2023/01/06 05:03:54;;;;;;;12.98;12.48;;;8.40;99.90;;;;;;5026455;28;20021;-72
2023/01/06 05:06:20;;;;;;;15.07;14.57;;;8.40;99.90;;;;;;5005115;28;20027;-72
2023/01/06 05:08:46;;;;;;;15.73;15.13;;;8.40;99.90;;;;;;5005146;28;20033;-72
2023/01/06 05:11:13;;;;;;;14.82;14.32;;;8.40;99.90;;;;;;5001340;28;20384;-73
2023/01/06 05:13:39;;;;;;;15.32;14.77;;;8.40;99.90;;;;;;4999955;28;20026;-71
2023/01/06 05:16:14;;;;;;;13.90;13.40;;;8.40;99.90;;;;;;5004763;28;20515;-71
2023/01/06 05:18:40;;;;;;;14.00;13.30;;;8.40;99.90;;;;;;5006639;28;20116;-72
2023/01/06 05:21:05;;;;;;;15.50;14.93;;;8.40;99.90;;;;;;5002081;28;20117;-71
2023/01/06 05:23:31;;;;;;;15.93;15.32;;;8.40;99.90;;;;;;4999827;28;20025;-72
2023/01/06 05:25:56;;;;;;;13.73;13.23;;;8.40;99.90;;;;;;5003899;28;20034;-72
2023/01/06 05:28:22;;;;;;;16.25;15.65;;;8.40;99.90;;;;;;5021610;28;20033;-72
2023/01/06 05:30:48;;;;;;;15.30;14.75;;;8.40;99.90;;;;;;5003828;28;20030;-72
2023/01/06 05:33:14;;;;;;;16.50;15.90;;;8.40;99.90;;;;;;5021631;28;20029;-71
2023/01/06 05:35:39;;;;;;;15.55;14.95;;;8.40;99.90;;;;;;5012711;28;20053;-72
2023/01/06 05:38:05;;;;;;;17.23;16.63;;;8.40;99.90;;;;;;4999199;28;20120;-71
2023/01/06 05:40:30;;;;;;;15.10;14.60;;;8.40;99.90;;;;;;5011188;28;20479;-71
2023/01/06 05:42:57;;;;;;;15.43;14.88;;;8.40;99.90;;;;;;5009877;28;20034;-72
2023/01/06 05:45:24;;;;;;;15.52;14.93;;;8.40;99.90;;;;;;5000729;28;20117;-72
2023/01/06 05:47:50;;;;;;;15.50;14.90;;;8.40;99.90;;;;;;4999279;28;20384;-73
2023/01/06 05:50:16;;;;;;;16.10;15.50;;;8.50;99.90;;;;;;5010952;28;20038;-72
2023/01/06 05:52:41;;;;;;;18.08;17.38;;;8.50;99.90;;;;;;4999463;28;20114;-72
2023/01/06 05:55:07;;;;;;;17.35;16.75;;;8.50;99.90;;;;;;5002137;28;20117;-73
2023/01/06 05:57:35;;;;;;;16.92;16.33;;;8.50;99.90;;;;;;5010292;28;20033;-72
2023/01/06 06:00:01;;;;;;;15.95;15.35;;;8.50;99.90;;;;;;5022550;28;20093;-72
2023/01/06 06:02:26;;;;;;;18.98;18.27;;;8.50;99.90;;;;;;5012129;28;20100;-72
2023/01/06 06:04:52;;;;;;;17.20;16.60;;;8.50;99.90;;;;;;5021323;28;20100;-72
2023/01/06 06:07:17;;;;;;;17.48;16.88;;;8.50;99.90;;;;;;5000481;28;20030;-73
2023/01/06 06:09:43;;;;;;;16.77;16.17;;;8.50;99.90;;;;;;4992440;28;20396;-71
2023/01/06 06:12:08;;;;;;;17.50;16.90;;;8.50;99.90;;;;;;5007840;28;20033;-72
2023/01/06 06:14:34;;;;;;;16.80;16.20;;;8.50;99.90;;;;;;5003155;28;20041;-71
2023/01/06 06:16:59;;;;;;;18.50;17.80;;;8.50;99.90;;;;;;5021080;28;20021;-71
2023/01/06 06:19:25;;;;;;;17.13;16.52;;;8.50;99.90;;;;;;5011652;28;20066;-71
2023/01/06 06:21:51;;;;;;;18.33;17.65;;;8.50;99.90;;;;;;5011945;28;20105;-71
2023/01/06 06:24:17;;;;;;;17.70;17.10;;;8.60;99.90;;;;;;5020255;28;20030;-71
2023/01/06 06:26:43;;;;;;;19.38;18.67;;;8.60;99.90;;;;;;5003269;28;20092;-71
2023/01/06 06:29:08;;;;;;;17.45;16.85;;;8.60;99.90;;;;;;5011979;28;20157;-72
2023/01/06 06:31:34;;;;;;;17.20;16.58;;;8.60;99.90;;;;;;4998929;28;20042;-71
2023/01/06 06:34:01;;;;;;;20.17;19.38;;;8.60;99.90;;;;;;5011858;28;20515;-71
2023/01/06 06:36:28;;;;;;;17.30;16.70;;;8.60;99.90;;;;;;5011781;28;20093;-71
2023/01/06 06:38:54;;;;;;;18.30;17.60;;;8.60;99.90;;;;;;5010322;28;20030;-72
2023/01/06 06:41:20;;;;;;;19.85;19.15;;;8.60;99.90;;;;;;5011859;28;20034;-72
2023/01/06 06:43:47;;;;;;;19.10;18.40;;;8.60;99.90;;;;;;5003511;28;20022;-72
2023/01/06 06:46:12;;;;;;;20.23;19.48;;;8.50;99.90;;;;;;5009411;28;20026;-71
2023/01/06 06:48:38;;;;;;;19.48;18.77;;;8.60;99.90;;;;;;5022922;28;20038;-72
2023/01/06 06:51:06;;;;;;;18.35;17.65;;;8.60;99.90;;;;;;5011712;28;20038;-72
2023/01/06 06:53:33;;;;;;;17.95;17.30;;;8.60;99.90;;;;;;5003219;28;20080;-72
2023/01/06 06:55:59;;;;;;;18.50;17.80;;;8.60;99.90;;;;;;5007589;28;20026;-71
2023/01/06 06:58:25;;;;;;;19.58;18.88;;;8.60;99.90;;;;;;5019034;28;20032;-71
2023/01/06 07:00:51;;;;;;;19.00;18.30;;;8.70;99.90;;;;;;5002860;28;20041;-73
2023/01/06 07:03:17;;;;;;;18.60;17.90;;;8.60;99.90;;;;;;5011806;28;20033;-72
2023/01/06 07:05:44;;;;;;;19.02;18.33;;;8.70;99.90;;;;;;5014203;28;20384;-72
2023/01/06 07:08:11;;;;;;;19.40;18.70;;;8.70;99.90;;;;;;5013302;28;20459;-73
2023/01/06 07:10:37;;;;;;;19.52;18.83;;;8.70;99.90;;;;;;4992178;28;20118;-72
2023/01/06 07:13:03;;;;;;;19.08;18.38;;;8.70;99.90;;;;;;4992242;28;20057;-72
2023/01/06 07:15:28;;;;;;;18.85;18.15;;;8.70;99.90;;;;;;5018879;28;20021;-72
2023/01/06 07:17:54;;;;;;;21.23;20.42;;;8.70;99.90;;;;;;4990771;28;20511;-73
2023/01/06 07:20:19;;;;;;;20.67;19.88;;;8.70;99.90;;;;;;4994498;28;20096;-73
2023/01/06 07:22:45;;;;;;;18.85;18.15;;;8.70;99.90;;;;;;5002853;28;20033;-72
2023/01/06 07:25:11;;;;;;;18.25;17.55;;;8.70;99.90;;;;;;5021858;28;20057;-73
2023/01/06 07:27:36;;;;;;;19.00;18.30;;;8.70;99.90;;;;;;5019327;28;20036;-72
2023/01/06 07:30:03;;;;;;;18.52;17.83;;;8.70;99.90;;;;;;5016135;28;20030;-72
2023/01/06 07:32:29;;;;;;;20.48;19.77;;;8.70;99.90;;;;;;5004823;28;20033;-72
2023/01/06 07:34:54;;;;;;;21.60;20.80;;;8.70;99.90;;;;;;4999378;28;20034;-73
2023/01/06 07:37:20;;;;;;;20.23;19.50;;;8.70;99.90;;;;;;5004497;28;20018;-72
2023/01/06 07:39:46;;;;;;;19.33;18.58;;;8.80;99.90;;;;;;5004275;28;20424;-72
2023/01/06 07:42:12;;;;;;;19.60;18.90;;;8.80;99.90;;;;;;5024240;28;20037;-72
2023/01/06 07:44:37;;;;;;;19.55;18.85;;;8.80;99.90;;;;;;5013468;28;20022;-72
2023/01/06 07:47:03;;;;;;;19.80;19.10;;;8.80;99.90;;;;;;5004236;28;20026;-73
2023/01/06 07:49:28;;;;;;;19.95;19.25;;;8.80;99.90;;;;;;5023233;28;20391;-72
2023/01/06 07:51:54;;;;;;;21.02;20.23;;;8.80;99.90;;;;;;5006270;28;20125;-72
2023/01/06 07:54:20;;;;;;;20.88;20.08;;;8.80;99.90;;;;;;5012017;28;20056;-73
2023/01/06 07:56:45;;;;;;;21.42;20.63;;;8.80;99.90;;;;;;5016872;28;20033;-72
2023/01/06 07:59:11;;;;;;;21.35;20.55;;;8.80;99.90;;;;;;5009239;28;20083;-72
2023/01/06 08:01:36;;;;;;;20.10;19.40;;;8.80;99.90;;;;;;5014696;28;20105;-70
2023/01/06 08:04:02;;;;;;;20.20;19.50;;;8.80;99.90;;;;;;5014646;28;20026;-73
2023/01/06 08:06:28;;;;;;;21.30;20.50;;;8.80;99.90;;;;;;5006217;28;20158;-74
2023/01/06 08:08:54;;;;;;;23.52;22.63;;;8.80;99.90;;;;;;5010960;28;20034;-73
2023/01/06 08:11:19;;;;;;;22.45;21.65;;;8.80;99.90;;;;;;5017230;28;20033;-74
2023/01/06 08:13:45;;;;;;;21.85;21.05;;;8.80;99.90;;;;;;4996563;28;20065;-73
2023/01/06 08:16:11;;;;;;;21.95;21.15;;;8.80;99.90;;;;;;5005031;28;20030;-73
2023/01/06 08:18:38;;;;;;;24.02;23.02;;;8.90;99.90;;;;;;5006894;28;20038;-75
2023/01/06 08:21:06;;;;;;;21.00;20.20;;;8.90;99.90;;;;;;5002740;28;20026;-74
2023/01/06 08:23:32;;;;;;;21.25;20.45;;;8.90;99.90;;;;;;5016295;28;20080;-74
2023/01/06 08:26:09;;;;;;;22.33;21.45;;;8.90;99.90;;;;;;5024473;28;20018;-73
2023/01/06 08:28:35;;;;;;;21.98;21.17;;;9.00;99.90;;;;;;4999151;28;20045;-74
2023/01/06 08:31:01;;;;;;;21.95;21.15;;;9.00;99.90;;;;;;5002321;28;20106;-74
2023/01/06 08:33:27;;;;;;;21.30;20.50;;;9.00;99.90;;;;;;5022967;28;20116;-74
2023/01/06 08:36:05;;;;;;;23.63;22.73;;;9.10;99.90;;;;;;5003048;28;20392;-73
2023/01/06 08:38:32;;;;;;;21.80;21.00;;;9.10;99.90;;;;;;5005978;28;20022;-73
2023/01/06 08:40:59;;;;;;;21.38;20.52;;;9.10;99.90;;;;;;5006231;28;20037;-73
2023/01/06 08:43:25;;;;;;;32.42;30.83;;;9.10;99.90;;;;;;5001851;28;20018;-74
2023/01/06 08:45:51;;;;;;;24.25;23.35;;;9.20;99.90;;;;;;5025929;28;20026;-73
2023/01/06 08:48:17;;;;;;;22.98;22.15;;;9.10;99.90;;;;;;4993731;28;20037;-73
2023/01/06 08:50:43;;;;;;;22.60;21.80;;;9.10;99.90;;;;;;5005959;28;20503;-73
2023/01/06 08:53:10;;;;;;;23.48;22.58;;;9.10;99.90;;;;;;5013111;28;20025;-73
2023/01/06 08:55:39;;;;;;;22.92;22.02;;;9.10;99.90;;;;;;5001132;28;20436;-73
2023/01/06 08:58:05;;;;;;;23.75;22.85;;;9.10;99.90;;;;;;5020062;28;20030;-73
2023/01/06 09:00:30;;;;;;;23.83;22.92;;;9.10;99.90;;;;;;4993551;28;20052;-72
2023/01/06 09:02:56;;;;;;;24.80;23.77;;;9.10;99.90;;;;;;5012655;28;20026;-73
2023/01/06 09:05:21;;;;;;;24.25;23.35;;;9.10;99.90;;;;;;4999819;28;20033;-73
2023/01/06 09:07:49;;;;;;;25.67;24.67;;;9.10;99.90;;;;;;5005196;28;20033;-73
2023/01/06 09:10:15;;;;;;;23.95;23.05;;;9.10;99.90;;;;;;5006797;28;20057;-73
2023/01/06 09:12:41;;;;;;;23.77;22.88;;;9.10;99.90;;;;;;5007527;28;20101;-72
2023/01/06 09:15:06;;;;;;;26.58;25.58;;;9.10;99.90;;;;;;5017486;28;20029;-72
2023/01/06 09:17:32;;;;;;;24.85;23.95;;;9.20;99.90;;;;;;5007949;28;20030;-72
2023/01/06 09:19:57;;;;;;;24.88;23.98;;;9.20;99.90;;;;;;4993416;28;20022;-72
2023/01/06 09:22:23;;;;;;;25.10;24.20;;;9.20;99.90;;;;;;5019184;28;20022;-72
2023/01/06 09:24:48;;;;;;;23.38;22.48;;;9.30;99.90;;;;;;5020126;28;20067;-72
2023/01/06 09:27:14;;;;;;;22.52;21.73;;;9.30;99.90;;;;;;4999819;28;20030;-73
2023/01/06 09:29:40;;;;;;;24.30;23.40;;;9.20;99.90;;;;;;5000475;28;20105;-72
2023/01/06 09:32:05;;;;;;;23.08;22.17;;;9.20;99.90;;;;;;5025061;28;20076;-72
2023/01/06 09:34:31;;;;;;;27.17;26.13;;;9.20;99.90;;;;;;5023882;28;20053;-72
2023/01/06 09:36:56;;;;;;;25.02;24.13;;;9.20;99.90;;;;;;4999335;28;20042;-72
2023/01/06 09:39:22;;;;;;;25.73;24.73;;;9.20;99.90;;;;;;5000437;28;20030;-73
2023/01/06 09:42:16;;;;;;;29.02;27.92;;;9.20;99.90;;;;;;5011344;28;20026;-72
2023/01/06 09:44:52;;;;;;;24.23;23.27;;;9.20;99.90;;;;;;5025794;28;20033;-73
2023/01/06 09:47:24;;;;;;;23.40;22.50;;;9.20;99.90;;;;;;5022887;28;20044;-73
2023/01/06 09:50:06;;;;;;;25.60;24.65;;;9.20;99.90;;;;;;5009490;28;20042;-72
2023/01/06 09:52:40;;;;;;;24.58;23.58;;;9.10;99.90;;;;;;4993283;28;20446;-73
2023/01/06 09:55:09;;;;;;;24.85;23.95;;;9.10;99.90;;;;;;5003394;28;20026;-72
2023/01/06 09:57:39;;;;;;;21.23;20.38;;;9.20;99.90;;;;;;5020644;28;20032;-72
2023/01/06 10:00:17;;;;;;;24.20;23.30;;;9.20;99.90;;;;;;5003248;28;20026;-72
2023/01/06 10:02:43;;;;;;;24.10;23.17;;;9.20;99.90;;;;;;5005863;28;20018;-72
2023/01/06 10:05:28;;;;;;;23.90;23.00;;;9.20;99.90;;;;;;5003191;28;20113;-73
2023/01/06 10:08:09;;;;;;;24.38;23.48;;;9.20;99.90;;;;;;4998705;28;20026;-72
2023/01/06 10:10:43;;;;;;;21.65;20.85;;;9.10;99.90;;;;;;4997882;28;20117;-72
2023/01/06 10:13:30;;;;;;;21.17;20.38;;;9.10;99.90;;;;;;5002538;28;20084;-73
2023/01/06 10:16:07;;;;;;;24.23;23.33;;;9.10;99.90;;;;;;5017511;28;20099;-72
2023/01/06 10:18:51;;;;;;;22.67;21.88;;;9.10;99.90;;;;;;5016193;28;20022;-73
2023/01/06 10:21:36;;;;;;;21.83;21.02;;;9.10;99.90;;;;;;5012850;28;20498;-72
2023/01/06 10:24:09;;;;;;;22.08;21.27;;;9.20;99.90;;;;;;5005885;28;20393;-72
2023/01/06 10:26:43;;;;;;;21.42;20.63;;;9.20;99.90;;;;;;5007101;28;20045;-73
2023/01/06 10:29:19;;;;;;;23.08;22.17;;;9.10;99.90;;;;;;5021591;28;20415;-73
2023/01/06 10:31:47;;;;;;;21.40;20.60;;;9.10;99.90;;;;;;4999523;28;20431;-72
2023/01/06 10:34:24;;;;;;;23.88;22.98;;;9.20;99.90;;;;;;5022244;28;20109;-72
2023/01/06 10:37:00;;;;;;;24.05;23.15;;;9.20;99.90;;;;;;5013000;28;20037;-72
2023/01/06 10:39:27;;;;;;;23.17;22.27;;;9.20;99.90;;;;;;4997346;28;20029;-72
2023/01/06 10:45:04;;;;;;;23.10;22.20;;;9.20;99.90;;;;;;4992473;28;20041;-73
2023/01/06 10:47:33;;;;;;;23.45;22.55;;;9.30;99.90;;;;;;5005052;28;20026;-73
2023/01/06 10:49:59;;;;;;;25.70;24.70;;;9.20;99.90;;;;;;5010117;28;20076;-72
2023/01/06 10:52:26;;;;;;;24.00;23.10;;;9.10;99.90;;;;;;4998726;28;20045;-72
2023/01/06 10:54:57;;;;;;;20.60;19.80;;;9.10;99.90;;;;;;5018612;28;20088;-73
2023/01/06 10:57:28;;;;;;;21.02;20.23;;;9.10;99.90;;;;;;5018059;28;20022;-72
2023/01/06 11:00:12;;;;;;;25.67;24.67;;;9.10;99.90;;;;;;5023344;28;20025;-72
2023/01/06 11:02:47;;;;;;;23.13;22.23;;;9.00;99.90;;;;;;5001293;28;20030;-73
2023/01/06 11:05:24;;;;;;;29.75;28.65;;;8.80;99.90;;;;;;5003107;28;20507;-73
2023/01/06 11:07:57;;;;;;;27.75;26.75;;;8.70;99.90;;;;;;5010521;28;20025;-72
2023/01/06 11:10:27;;;;;;;25.20;24.30;;;8.60;99.90;;;;;;5018108;28;20022;-72
2023/01/06 11:12:54;;;;;;;22.45;21.65;;;8.60;99.90;;;;;;4995751;28;20110;-72
2023/01/06 11:15:24;;;;;;;23.67;22.77;;;8.40;99.90;;;;;;5023719;28;20551;-73
2023/01/06 11:17:50;;;;;;;24.30;23.40;;;8.40;99.90;;;;;;5005652;28;20034;-72
2023/01/06 11:20:15;;;;;;;24.23;23.27;;;8.40;99.90;;;;;;4998739;28;20034;-71
2023/01/06 11:22:42;;;;;;;29.85;28.35;;;8.40;99.90;;;;;;5005306;28;20713;-73
2023/01/06 11:25:19;;;;;;;24.38;23.48;;;8.30;99.90;;;;;;5010755;28;20116;-72
2023/01/06 11:28:14;;;;;;;22.58;21.75;;;8.30;99.90;;;;;;5003526;28;20027;-72
2023/01/06 11:30:48;;;;;;;23.75;22.85;;;8.30;99.90;;;;;;5010297;28;20048;-72
2023/01/06 11:33:25;;;;;;;24.92;24.02;;;8.30;99.90;;;;;;5017722;28;20476;-72
2023/01/06 11:35:52;;;;;;;23.10;22.20;;;8.30;99.90;;;;;;5004693;28;20033;-73
2023/01/06 11:38:19;;;;;;;22.27;21.48;;;8.30;99.90;;;;;;5002931;28;20029;-72
2023/01/06 11:40:48;;;;;;;27.77;26.67;;;8.30;99.90;;;;;;5023020;28;20523;-73
2023/01/06 11:43:29;;;;;;;25.38;24.42;;;8.30;99.90;;;;;;5006340;28;20130;-72
2023/01/06 11:45:58;;;;;;;27.92;26.83;;;8.30;99.90;;;;;;5014616;28;20026;-72
2023/01/06 11:48:30;;;;;;;25.83;24.83;;;8.30;99.90;;;;;;5014885;28;20066;-72
2023/01/06 11:50:58;;;;;;;25.60;24.60;;;8.30;99.90;;;;;;5005545;28;20484;-71
2023/01/06 11:53:25;;;;;;;30.10;28.95;;;8.30;99.90;;;;;;5007528;28;20026;-72
2023/01/06 11:56:03;;;;;;;28.65;27.52;;;8.40;99.90;;;;;;5000858;28;20022;-72
2023/01/06 11:58:35;;;;;;;24.10;22.88;;;8.40;99.90;;;;;;5000767;28;20023;-72
2023/01/06 12:01:08;;;;;;;24.55;23.65;;;8.40;99.90;;;;;;5007493;28;20030;-72
2023/01/06 12:03:42;;;;;;;24.75;23.75;;;8.40;99.90;;;;;;5015881;28;20492;-72
2023/01/06 12:06:11;;;;;;;26.48;25.45;;;8.50;99.90;;;;;;5004454;28;20033;-72
2023/01/06 12:08:58;;;;;;;25.25;24.30;;;8.60;99.90;;;;;;5024781;28;20021;-72
2023/01/06 12:12:02;;;;;;;24.80;23.90;;;8.60;99.90;;;;;;5019192;28;20036;-72
2023/01/06 12:14:29;;;;;;;28.25;27.15;;;8.60;99.90;;;;;;5004456;28;20042;-72
2023/01/06 12:16:58;;;;;;;28.73;27.52;;;8.50;99.90;;;;;;5004035;28;20034;-72
2023/01/06 12:19:36;;;;;;;25.65;24.67;;;8.50;99.90;;;;;;5002030;28;20030;-72
2023/01/06 12:22:03;;;;;;;27.13;26.00;;;8.50;99.90;;;;;;5007824;28;20503;-72
2023/01/06 12:24:32;;;;;;;27.75;26.67;;;8.50;99.90;;;;;;5004603;28;20022;-73
2023/01/06 12:27:01;;;;;;;37.22;35.72;;;8.60;99.90;;;;;;5002560;28;20031;-72
2023/01/06 12:29:27;;;;;;;23.75;22.85;;;8.70;99.90;;;;;;5002173;28;20439;-72
2023/01/06 12:31:59;;;;;;;21.95;21.15;;;8.60;99.90;;;;;;5002305;28;20072;-72
2023/01/06 12:34:35;;;;;;;22.25;21.45;;;8.60;99.90;;;;;;5018059;28;20041;-72
2023/01/06 12:37:16;;;;;;;30.95;29.75;;;8.60;99.90;;;;;;5008888;28;20029;-72
2023/01/06 12:39:59;;;;;;;25.17;24.25;;;8.50;99.90;;;;;;5025704;28;20446;-71
2023/01/06 12:43:11;;;;;;;24.35;23.45;;;8.60;99.90;;;;;;5006213;28;20053;-71
2023/01/06 12:45:45;;;;;;;24.08;23.17;;;8.50;99.90;;;;;;4982133;28;20026;-71
2023/01/06 12:48:43;;;;;;;24.80;23.90;;;8.60;99.90;;;;;;4978620;28;20391;-72
2023/01/06 12:51:29;;;;;;;28.95;27.85;;;8.50;99.90;;;;;;5008324;28;20042;-71
2023/01/06 12:54:11;;;;;;;29.52;28.35;;;8.50;99.90;;;;;;4999179;28;20125;-72
2023/01/06 12:56:45;;;;;;;25.10;24.10;;;8.50;99.90;;;;;;5004376;28;20107;-72
2023/01/06 12:59:37;;;;;;;26.00;25.00;;;8.50;99.90;;;;;;5000072;28;20096;-72
2023/01/06 13:02:28;;;;;;;23.77;22.88;;;8.50;99.90;;;;;;5007325;28;20488;-72
2023/01/06 13:05:22;;;;;;;28.40;27.30;;;8.50;99.90;;;;;;5009101;28;20043;-71